Etusivu
METAR-TAF:

METAR-TAF

Lentoasemat :

Le Touquet, Ranska

Leveyspiiri: 50-30-53N, Pituuspiiri: 001-37-39E, korkeus merenpinnasta: 6 m

Tämänhetkinen sää

Tämä raportti tehtiin 30 minuuttia sitten, kello 10.00 UTC
Tuuli 7 kn luoteesta
Lämpötila 18°C
Kosteus 77%
Ilmanpaine 1016 hPa
Näkyvyys 10 km tai enemmän
Muutamia pilviä 4600 ft:n korkeudessa
Hajanaisia pilviä 7000 ft:n korkeudessa

METAR: LFAT 151000Z AUTO 32007KT 9999 FEW046 SCT070 18/14 Q1016 NOSIG

Aika: 12:30 (10:30 UTC)

Sääennuste

Tämä raportti tehtiin 2 tuntia ja 30 minuuttia sitten, kello 08.00 UTC
Ennuste voimassa 15. päivästä klo 09 UTC - 15. päivään klo 18 UTC
Tuuli 2 kn eri suunnista
Näkyvyys 10 km tai enemmän
Hajonneita pilviä 3000 ft:n korkeudessa
Tulossa
15. päivästä klo 09 UTC - 15. päivään klo 12 UTC
Tuuli 10 kn lännestä/luoteesta

TAF: LFAT 150800Z 1509/1518 VRB02KT 9999 BKN030 BECMG 1509/1512 30010KT

Säähavainnot ja -ennusteet yli 4000 lentoasemalta (METAR- ja TAF-raportit).

Käytössä olevat sääasemat on merkitty karttaan keltaisilla ja punaisilla pisteillä.

Aseta hiiri pisteen päälle nähdäksesi sääaseman nimen.

Klikkaa sitten nähdäksesi säähavainnot ja -ennusteet.

Kartan vaihtaminen: klikkaa mustalla rastilla varustettuja vihreitä pisteitä, niin voit zoomata sisään; viivalla varustettua vihreää pistettä, niin voit zoomata ulos tai vihreitä nuolia, niin pääset viereisille kartoille.


METAR-TAF: